createdAt,value
2022-10-18T00:00:02.749Z,10.74
2022-10-18T00:01:02.729Z,10.72
2022-10-18T00:02:02.748Z,10.72
2022-10-18T00:03:02.716Z,10.74
2022-10-18T00:04:02.739Z,10.74
2022-10-18T00:05:02.677Z,10.71
2022-10-18T00:06:02.666Z,10.69
2022-10-18T00:07:02.651Z,10.64
2022-10-18T00:08:02.670Z,10.61
2022-10-18T00:09:02.623Z,10.63
2022-10-18T00:10:02.608Z,10.61
2022-10-18T00:11:02.597Z,10.60
2022-10-18T00:12:02.587Z,10.54
2022-10-18T00:13:02.570Z,10.51
2022-10-18T00:14:02.586Z,10.51
2022-10-18T00:15:02.556Z,10.49
2022-10-18T00:16:02.528Z,10.48
2022-10-18T00:17:02.549Z,10.49
2022-10-18T00:18:02.519Z,10.53
2022-10-18T00:19:02.487Z,10.53
2022-10-18T00:20:02.477Z,10.49
2022-10-18T00:21:02.460Z,10.48
2022-10-18T00:22:02.478Z,10.49
2022-10-18T00:23:02.449Z,10.51
2022-10-18T00:24:02.427Z,10.54
2022-10-18T00:25:02.417Z,10.56
2022-10-18T00:26:02.403Z,10.57
2022-10-18T00:27:02.407Z,10.56
2022-10-18T00:28:02.382Z,10.54
2022-10-18T00:29:02.488Z,10.54
2022-10-18T00:30:02.355Z,10.57
2022-10-18T00:31:02.354Z,10.57
2022-10-18T00:32:02.349Z,10.59
2022-10-18T00:33:02.304Z,10.57
2022-10-18T00:34:02.297Z,10.60
2022-10-18T00:35:02.281Z,10.57
2022-10-18T00:36:02.293Z,10.57
2022-10-18T00:37:02.250Z,10.57
2022-10-18T00:38:02.248Z,10.54
2022-10-18T00:39:02.237Z,10.56
2022-10-18T00:40:02.209Z,10.54
2022-10-18T00:41:02.221Z,10.53
2022-10-18T00:42:02.184Z,10.51
2022-10-18T00:43:02.194Z,10.51
2022-10-18T00:44:02.158Z,10.51
2022-10-18T00:45:02.164Z,10.48
2022-10-18T00:46:02.186Z,10.44
2022-10-18T00:47:02.112Z,10.42
2022-10-18T00:48:02.104Z,10.42
2022-10-18T00:49:02.117Z,10.42
2022-10-18T00:50:02.106Z,10.40
2022-10-18T00:51:02.053Z,10.37
2022-10-18T00:52:02.043Z,10.37
2022-10-18T00:53:02.034Z,10.37
2022-10-18T00:54:02.028Z,10.31
2022-10-18T00:55:02.044Z,10.28
2022-10-18T00:56:02.018Z,10.30
2022-10-18T00:57:01.978Z,10.30
2022-10-18T00:58:01.979Z,10.28
2022-10-18T00:59:01.956Z,10.28
2022-10-18T01:00:01.970Z,10.26
2022-10-18T01:01:01.957Z,10.23
2022-10-18T01:02:02.003Z,10.23
2022-10-18T01:03:01.890Z,10.22
2022-10-18T01:04:01.898Z,10.22
2022-10-18T01:05:01.898Z,10.22
2022-10-18T01:06:01.859Z,10.19
2022-10-18T01:07:01.855Z,10.20
2022-10-18T01:08:01.840Z,10.20
2022-10-18T01:09:01.829Z,10.19
2022-10-18T01:10:01.860Z,10.20
2022-10-18T01:11:01.879Z,10.22
2022-10-18T01:12:01.825Z,10.20
2022-10-18T01:13:01.765Z,10.17
2022-10-18T01:14:01.751Z,10.17
2022-10-18T01:15:01.750Z,10.19
2022-10-18T01:16:01.747Z,10.19
2022-10-18T01:17:01.719Z,10.20
2022-10-18T01:18:01.712Z,10.22
2022-10-18T01:19:01.686Z,10.17
2022-10-18T01:20:01.687Z,10.17
2022-10-18T01:21:01.692Z,10.19
2022-10-18T01:22:01.645Z,10.20
2022-10-18T01:23:01.641Z,10.20
2022-10-18T01:24:01.650Z,10.22
2022-10-18T01:26:01.588Z,10.23
2022-10-18T01:27:01.574Z,10.20
2022-10-18T01:28:01.578Z,10.17
2022-10-18T01:29:01.711Z,10.16
2022-10-18T01:30:01.647Z,10.13
2022-10-18T01:31:01.549Z,10.07
2022-10-18T01:32:01.550Z,10.02
2022-10-18T01:33:01.506Z,10.01
2022-10-18T01:35:01.473Z,9.98
2022-10-18T01:36:01.452Z,9.98
2022-10-18T01:37:01.466Z,9.99
2022-10-18T01:38:01.432Z,9.98
2022-10-18T01:39:01.415Z,9.99
2022-10-18T01:40:01.410Z,9.98
2022-10-18T01:41:01.406Z,9.99
2022-10-18T01:42:01.393Z,9.98
2022-10-18T01:43:01.436Z,9.97
2022-10-18T01:44:01.370Z,9.95
2022-10-18T01:45:01.417Z,9.97
2022-10-18T01:46:01.319Z,9.94
2022-10-18T01:47:01.346Z,9.97
2022-10-18T01:48:01.301Z,9.95
2022-10-18T01:49:01.366Z,9.97
2022-10-18T01:50:01.278Z,9.98
2022-10-18T01:51:01.248Z,9.95
2022-10-18T01:52:01.344Z,9.92
2022-10-18T01:53:01.232Z,9.89
2022-10-18T01:54:01.230Z,9.86
2022-10-18T01:55:01.215Z,9.86
2022-10-18T01:56:01.204Z,9.84
2022-10-18T01:57:01.209Z,9.84
2022-10-18T01:58:01.182Z,9.83
2022-10-18T01:59:01.161Z,9.83
2022-10-18T02:00:01.138Z,9.76
2022-10-18T02:01:01.265Z,9.74
2022-10-18T02:02:01.144Z,9.72
2022-10-18T02:03:01.090Z,9.66
2022-10-18T02:04:01.106Z,9.66
2022-10-18T02:05:01.073Z,9.65
2022-10-18T02:06:01.041Z,9.64
2022-10-18T02:07:01.050Z,9.65
2022-10-18T02:08:12.569Z,9.65
2022-10-18T02:09:01.037Z,9.69
2022-10-18T02:10:01.045Z,9.72
2022-10-18T02:11:00.975Z,9.66
2022-10-18T02:12:00.975Z,9.68
2022-10-18T02:13:00.960Z,9.66
2022-10-18T02:14:00.967Z,9.68
2022-10-18T02:15:00.931Z,9.69
2022-10-18T02:16:00.943Z,9.73
2022-10-18T02:17:00.907Z,9.72
2022-10-18T02:18:00.885Z,9.73
2022-10-18T02:19:00.879Z,9.72
2022-10-18T02:20:00.889Z,9.72
2022-10-18T02:21:00.852Z,9.74
2022-10-18T02:22:00.866Z,9.74
2022-10-18T02:23:00.812Z,9.76
2022-10-18T02:24:00.813Z,9.76
2022-10-18T02:25:00.792Z,9.76
2022-10-18T02:26:00.798Z,9.79
2022-10-18T02:27:00.768Z,9.82
2022-10-18T02:28:00.758Z,9.83
2022-10-18T02:29:00.742Z,9.84
2022-10-18T02:30:00.753Z,9.86
2022-10-18T02:31:00.731Z,9.86
2022-10-18T02:32:00.698Z,9.89
2022-10-18T02:33:00.688Z,9.91
2022-10-18T02:34:00.699Z,9.89
2022-10-18T02:35:00.687Z,9.87
2022-10-18T02:36:00.653Z,9.86
2022-10-18T02:37:00.631Z,9.87
2022-10-18T02:38:00.622Z,9.84
2022-10-18T02:39:00.632Z,9.84
2022-10-18T02:40:00.616Z,9.83
2022-10-18T02:41:00.575Z,9.82
2022-10-18T02:42:00.594Z,9.82
2022-10-18T02:43:00.552Z,9.83
2022-10-18T02:44:00.564Z,9.82
2022-10-18T02:45:00.539Z,9.83
2022-10-18T02:46:00.515Z,9.82
2022-10-18T02:47:00.491Z,9.82
2022-10-18T02:48:00.520Z,9.80
2022-10-18T02:49:00.502Z,9.80
2022-10-18T02:50:00.451Z,9.80
2022-10-18T02:51:00.452Z,9.79
2022-10-18T02:52:00.428Z,9.79
2022-10-18T02:53:00.444Z,9.77
2022-10-18T02:54:00.430Z,9.76
2022-10-18T02:55:00.417Z,9.74
2022-10-18T02:56:00.379Z,9.66
2022-10-18T02:57:00.379Z,9.61
2022-10-18T02:58:00.385Z,9.59
2022-10-18T02:59:00.380Z,9.59
2022-10-18T03:00:00.334Z,9.56
2022-10-18T03:01:00.318Z,9.58
2022-10-18T03:02:00.298Z,9.58
2022-10-18T03:03:00.315Z,9.58
2022-10-18T03:04:00.277Z,9.59
2022-10-18T03:05:00.286Z,9.59
2022-10-18T03:06:00.269Z,9.58
2022-10-18T03:07:00.249Z,9.58
2022-10-18T03:08:00.246Z,9.56
2022-10-18T03:09:00.229Z,9.58
2022-10-18T03:10:00.182Z,9.55
2022-10-18T03:11:00.167Z,9.58
2022-10-18T03:12:00.176Z,9.58
2022-10-18T03:13:00.175Z,9.55
2022-10-18T03:14:00.151Z,9.54
2022-10-18T03:15:00.129Z,9.51
2022-10-18T03:16:00.120Z,9.50
2022-10-18T03:17:00.138Z,9.46
2022-10-18T03:18:00.090Z,9.40
2022-10-18T03:19:00.114Z,9.40
2022-10-18T03:20:00.053Z,9.34
2022-10-18T03:21:00.041Z,9.28
2022-10-18T03:22:00.029Z,9.28
2022-10-18T03:23:00.012Z,9.28
2022-10-18T03:24:00.019Z,9.28
2022-10-18T03:25:00.016Z,9.28
2022-10-18T03:25:59.969Z,9.29
2022-10-18T03:26:59.959Z,9.29
2022-10-18T03:27:59.967Z,9.29
2022-10-18T03:29:00.088Z,9.32
2022-10-18T03:29:59.946Z,9.32
2022-10-18T03:30:59.903Z,9.37
2022-10-18T03:31:59.965Z,9.37
2022-10-18T03:32:59.887Z,9.40
2022-10-18T03:33:59.856Z,9.37
2022-10-18T03:34:59.877Z,9.36
2022-10-18T03:35:59.830Z,9.37
2022-10-18T03:37:02.151Z,9.37
2022-10-18T03:37:59.859Z,9.37
2022-10-18T03:38:59.823Z,9.39
2022-10-18T03:39:59.804Z,9.39
2022-10-18T03:40:59.769Z,9.41
2022-10-18T03:41:59.750Z,9.43
2022-10-18T03:42:59.773Z,9.41
2022-10-18T03:43:59.747Z,9.43
2022-10-18T03:44:59.713Z,9.47
2022-10-18T03:45:59.701Z,9.47
2022-10-18T03:46:59.722Z,9.50
2022-10-18T03:47:59.687Z,9.55
2022-10-18T03:48:59.657Z,9.58
2022-10-18T03:49:59.643Z,9.59
2022-10-18T03:50:59.628Z,9.61
2022-10-18T03:51:59.690Z,9.61
2022-10-18T03:52:59.605Z,9.61
2022-10-18T03:53:59.623Z,9.62
2022-10-18T03:54:59.584Z,9.59
2022-10-18T03:55:59.561Z,9.61
2022-10-18T03:56:59.566Z,9.58
2022-10-18T03:57:59.531Z,9.55
2022-10-18T03:58:59.555Z,9.58
2022-10-18T03:59:59.511Z,9.54
2022-10-18T04:00:59.515Z,9.55
2022-10-18T04:01:59.554Z,9.54
2022-10-18T04:02:59.509Z,9.54
2022-10-18T04:03:59.485Z,9.51
2022-10-18T04:04:59.454Z,9.50
2022-10-18T04:05:59.423Z,9.50
2022-10-18T04:06:59.475Z,9.46
2022-10-18T04:07:59.426Z,9.41
2022-10-18T04:08:59.386Z,9.40
2022-10-18T04:09:59.380Z,9.39
2022-10-18T04:10:59.359Z,9.36
2022-10-18T04:11:59.349Z,9.37
2022-10-18T04:12:59.375Z,9.39
2022-10-18T04:13:59.315Z,9.37
2022-10-18T04:14:59.315Z,9.36
2022-10-18T04:15:59.291Z,9.37
2022-10-18T04:16:59.287Z,9.34
2022-10-18T04:17:59.282Z,9.32
2022-10-18T04:18:59.293Z,9.34
2022-10-18T04:19:59.242Z,9.32
2022-10-18T04:20:59.235Z,9.31
2022-10-18T04:21:59.239Z,9.29
2022-10-18T04:22:59.201Z,9.26
2022-10-18T04:23:59.192Z,9.29
2022-10-18T04:24:59.173Z,9.26
2022-10-18T04:25:59.153Z,9.23
2022-10-18T04:26:59.178Z,9.19
2022-10-18T04:27:59.173Z,9.21
2022-10-18T04:28:59.210Z,9.19
2022-10-18T04:29:59.102Z,9.19
2022-10-18T04:30:59.096Z,9.19
2022-10-18T04:31:59.103Z,9.19
2022-10-18T04:32:59.230Z,9.21
2022-10-18T04:33:59.050Z,9.21
2022-10-18T04:34:59.042Z,9.22
2022-10-18T04:35:59.027Z,9.22
2022-10-18T04:36:59.039Z,9.18
2022-10-18T04:37:59.003Z,9.19
2022-10-18T04:38:59.070Z,9.18
2022-10-18T04:39:58.970Z,9.16
2022-10-18T04:40:58.967Z,9.13
2022-10-18T04:41:58.977Z,9.11
2022-10-18T04:42:58.932Z,9.14
2022-10-18T04:43:58.924Z,9.14
2022-10-18T04:44:58.905Z,9.13
2022-10-18T04:45:58.887Z,9.13
2022-10-18T04:46:58.909Z,9.16
2022-10-18T04:47:58.863Z,9.16
2022-10-18T04:48:58.882Z,9.14
2022-10-18T04:49:58.848Z,9.14
2022-10-18T04:50:58.827Z,9.14
2022-10-18T04:51:58.832Z,9.14
2022-10-18T04:52:58.835Z,9.16
2022-10-18T04:53:58.775Z,9.11
2022-10-18T04:54:58.786Z,9.11
2022-10-18T04:55:58.788Z,9.08
2022-10-18T04:56:58.754Z,9.11
2022-10-18T04:57:58.731Z,9.11
2022-10-18T04:58:58.716Z,9.11
2022-10-18T04:59:58.728Z,9.13
2022-10-18T05:00:58.718Z,9.13
2022-10-18T05:01:58.759Z,9.14
2022-10-18T05:02:58.663Z,9.16
2022-10-18T05:03:58.654Z,9.16
2022-10-18T05:04:58.647Z,9.14
2022-10-18T05:06:03.107Z,9.14
2022-10-18T05:06:58.617Z,9.14
2022-10-18T05:07:58.594Z,9.14
2022-10-18T05:08:58.588Z,9.13
2022-10-18T05:09:58.588Z,9.11
2022-10-18T05:10:58.601Z,9.11
2022-10-18T05:11:58.553Z,9.11
2022-10-18T05:12:58.604Z,9.04
2022-10-18T05:13:58.562Z,9.02
2022-10-18T05:14:58.510Z,9.02
2022-10-18T05:15:58.485Z,9.03
2022-10-18T05:16:58.577Z,9.03
2022-10-18T05:17:58.463Z,9.04
2022-10-18T05:18:58.478Z,9.04
2022-10-18T05:19:58.466Z,9.03
2022-10-18T05:20:58.420Z,9.03
2022-10-18T05:21:58.576Z,9.03
2022-10-18T05:22:58.389Z,9.03
2022-10-18T05:23:58.409Z,9.00
2022-10-18T05:24:58.368Z,8.99
2022-10-18T05:25:58.349Z,8.99
2022-10-18T05:26:58.337Z,8.97
2022-10-18T05:28:00.971Z,8.97
2022-10-18T05:28:58.426Z,9.00
2022-10-18T05:30:01.273Z,9.02
2022-10-18T05:30:58.294Z,9.03
2022-10-18T05:31:58.302Z,9.04
2022-10-18T05:32:58.280Z,9.11
2022-10-18T05:33:58.245Z,9.11
2022-10-18T05:34:58.261Z,9.11
2022-10-18T05:35:58.231Z,9.11
2022-10-18T05:36:58.203Z,9.11
2022-10-18T05:37:58.204Z,9.11
2022-10-18T05:39:00.996Z,9.14
2022-10-18T05:39:58.194Z,9.13
2022-10-18T05:40:58.147Z,9.13
2022-10-18T05:41:58.139Z,9.13
2022-10-18T05:42:58.151Z,9.11
2022-10-18T05:43:58.105Z,9.10
2022-10-18T05:44:58.119Z,9.08
2022-10-18T05:45:58.088Z,9.06
2022-10-18T05:46:58.063Z,9.08
2022-10-18T05:47:58.073Z,9.10
2022-10-18T05:48:58.047Z,9.11
2022-10-18T05:49:58.041Z,9.13
2022-10-18T05:50:58.016Z,9.16
2022-10-18T05:51:57.999Z,9.18
2022-10-18T05:53:06.840Z,9.19
2022-10-18T05:53:58.004Z,9.22
2022-10-18T05:54:57.977Z,9.23
2022-10-18T05:55:57.954Z,9.26
2022-10-18T05:56:57.960Z,9.26
2022-10-18T05:57:57.920Z,9.28
2022-10-18T05:58:57.900Z,9.28
2022-10-18T05:59:57.923Z,9.28
2022-10-18T06:00:57.898Z,9.26
2022-10-18T06:01:57.879Z,9.28
2022-10-18T06:03:00.222Z,9.28
2022-10-18T06:03:57.845Z,9.29
2022-10-18T06:04:57.845Z,9.25
2022-10-18T06:05:57.819Z,9.22
2022-10-18T06:06:57.809Z,9.21
2022-10-18T06:07:57.794Z,9.21
2022-10-18T06:08:57.762Z,9.21
2022-10-18T06:09:57.787Z,9.19
2022-10-18T06:10:57.745Z,9.19
2022-10-18T06:11:57.741Z,9.19
2022-10-18T06:12:57.723Z,9.21
2022-10-18T06:13:57.733Z,9.21
2022-10-18T06:14:57.720Z,9.21
2022-10-18T06:15:57.678Z,9.21
2022-10-18T06:16:57.665Z,9.22
2022-10-18T06:17:57.657Z,9.25
2022-10-18T06:18:57.657Z,9.29
2022-10-18T06:19:57.626Z,9.31
2022-10-18T06:20:57.620Z,9.36
2022-10-18T06:21:57.598Z,9.37
2022-10-18T06:22:57.625Z,9.39
2022-10-18T06:23:57.599Z,9.40
2022-10-18T06:24:57.586Z,9.41
2022-10-18T06:25:57.564Z,9.44
2022-10-18T06:26:57.604Z,9.47
2022-10-18T06:27:57.523Z,9.47
2022-10-18T06:28:57.602Z,9.48
2022-10-18T06:29:57.526Z,9.50
2022-10-18T06:30:57.498Z,9.54
2022-10-18T06:31:57.458Z,9.50
2022-10-18T06:32:57.451Z,9.51
2022-10-18T06:33:57.453Z,9.54
2022-10-18T06:34:57.458Z,9.54
2022-10-18T06:35:57.437Z,9.54
2022-10-18T06:36:58.768Z,9.55
2022-10-18T06:37:57.405Z,9.55
2022-10-18T06:38:57.363Z,9.55
2022-10-18T06:39:57.361Z,9.55
2022-10-18T06:40:57.364Z,9.55
2022-10-18T06:41:57.360Z,9.56
2022-10-18T06:43:00.439Z,9.58
2022-10-18T06:43:57.317Z,9.59
2022-10-18T06:44:57.283Z,9.62
2022-10-18T06:45:57.310Z,9.64
2022-10-18T06:46:57.252Z,9.68
2022-10-18T06:47:57.248Z,9.74
2022-10-18T06:48:57.223Z,9.79
2022-10-18T06:49:57.249Z,9.84
2022-10-18T06:50:57.227Z,9.87
2022-10-18T06:51:57.187Z,9.92
2022-10-18T06:52:57.183Z,9.97
2022-10-18T06:54:16.774Z,10.01
2022-10-18T06:54:57.180Z,10.05
2022-10-18T06:55:57.129Z,10.10
2022-10-18T06:56:57.122Z,10.12
2022-10-18T06:57:57.165Z,10.16
2022-10-18T06:59:57.148Z,10.20
2022-10-18T07:00:57.091Z,10.23
2022-10-18T07:01:57.134Z,10.25
2022-10-18T07:02:57.041Z,10.28
2022-10-18T07:03:57.029Z,10.31
2022-10-18T07:04:57.266Z,10.37
2022-10-18T07:05:57.026Z,10.38
2022-10-18T07:06:56.996Z,10.44
2022-10-18T07:07:56.987Z,10.51
2022-10-18T07:08:56.965Z,10.57
2022-10-18T07:09:56.953Z,10.61
2022-10-18T07:10:56.952Z,10.69
2022-10-18T07:11:56.920Z,10.79
2022-10-18T07:13:13.637Z,10.86
2022-10-18T07:13:56.914Z,10.96
2022-10-18T07:14:56.909Z,11.02
2022-10-18T07:15:56.872Z,11.14
2022-10-18T07:16:56.878Z,11.19
2022-10-18T07:17:56.842Z,11.25
2022-10-18T07:18:56.824Z,11.30
2022-10-18T07:19:56.822Z,11.40
2022-10-18T07:20:56.825Z,11.45
2022-10-18T07:21:56.794Z,11.54
2022-10-18T07:22:56.779Z,11.66
2022-10-18T07:23:56.757Z,11.75
2022-10-18T07:24:56.761Z,11.94
2022-10-18T07:25:56.765Z,12.06
2022-10-18T07:26:56.726Z,12.21
2022-10-18T07:27:56.710Z,12.31
2022-10-18T07:28:56.760Z,12.40
2022-10-18T07:29:56.698Z,12.47
2022-10-18T07:30:56.774Z,12.55
2022-10-18T07:31:56.869Z,12.64
2022-10-18T07:32:56.651Z,12.70
2022-10-18T07:33:56.696Z,12.78
2022-10-18T07:34:56.631Z,12.80
2022-10-18T07:35:56.608Z,12.79
2022-10-18T07:36:56.589Z,12.85
2022-10-18T07:37:56.589Z,12.83
2022-10-18T07:38:56.566Z,12.86
2022-10-18T07:39:56.601Z,12.90
2022-10-18T07:40:56.554Z,12.97
2022-10-18T07:41:56.523Z,13.04
2022-10-18T07:42:56.536Z,13.12
2022-10-18T07:43:56.493Z,13.20
2022-10-18T07:44:56.498Z,13.30
2022-10-18T07:45:56.469Z,13.41
2022-10-18T07:46:56.477Z,13.50
2022-10-18T07:47:56.482Z,13.59
2022-10-18T07:48:56.441Z,13.65
2022-10-18T07:49:56.429Z,13.74
2022-10-18T07:50:56.403Z,13.79
2022-10-18T07:51:56.405Z,13.87
2022-10-18T07:52:56.382Z,13.96
2022-10-18T07:53:56.389Z,14.00
2022-10-18T07:54:56.353Z,14.11
2022-10-18T07:55:56.369Z,14.26
2022-10-18T07:56:56.331Z,14.35
2022-10-18T07:57:56.312Z,14.48
2022-10-18T07:58:56.320Z,14.63
2022-10-18T07:59:56.292Z,14.77
2022-10-18T08:00:56.266Z,14.86
2022-10-18T08:01:56.380Z,14.96
2022-10-18T08:02:56.261Z,15.07
2022-10-18T08:03:56.245Z,15.19
2022-10-18T08:04:56.212Z,15.28
2022-10-18T08:05:56.211Z,15.47
2022-10-18T08:06:56.184Z,15.64
2022-10-18T08:07:56.169Z,15.77
2022-10-18T08:08:56.174Z,15.88
2022-10-18T08:09:56.142Z,15.92
2022-10-18T08:10:56.127Z,15.98
2022-10-18T08:11:56.116Z,16.01
2022-10-18T08:12:56.240Z,15.97
2022-10-18T08:13:56.107Z,15.97
2022-10-18T08:14:56.078Z,16.00
2022-10-18T08:15:56.068Z,16.04
2022-10-18T08:16:56.090Z,16.10
2022-10-18T08:17:56.040Z,16.20
2022-10-18T08:18:56.043Z,16.24
2022-10-18T08:20:11.551Z,16.33
2022-10-18T08:20:56.013Z,16.42
2022-10-18T08:21:56.038Z,16.49
2022-10-18T08:22:59.858Z,16.57
2022-10-18T08:23:55.957Z,16.68
2022-10-18T08:24:55.977Z,16.84
2022-10-18T08:25:55.953Z,17.02
2022-10-18T08:26:55.937Z,17.16
2022-10-18T08:27:55.910Z,17.31
2022-10-18T08:29:10.669Z,17.44
2022-10-18T08:29:55.964Z,17.56
2022-10-18T08:30:55.886Z,17.68
2022-10-18T08:31:55.933Z,17.82
2022-10-18T08:32:55.838Z,17.87
2022-10-18T08:33:55.832Z,17.94
2022-10-18T08:34:55.809Z,17.98
2022-10-18T08:35:55.821Z,17.98
2022-10-18T08:36:55.781Z,18.03
2022-10-18T08:37:55.772Z,18.07
2022-10-18T08:38:55.752Z,18.15
2022-10-18T08:39:55.748Z,18.16
2022-10-18T08:40:55.775Z,18.26
2022-10-18T08:41:55.745Z,18.33
2022-10-18T08:42:55.701Z,18.33
2022-10-18T08:43:55.693Z,18.38
2022-10-18T08:44:55.673Z,18.55
2022-10-18T08:45:55.683Z,18.66
2022-10-18T08:46:55.650Z,18.78
2022-10-18T08:47:55.679Z,19.00
2022-10-18T08:48:55.617Z,19.21
2022-10-18T08:49:55.632Z,19.36
2022-10-18T08:50:55.594Z,19.47
2022-10-18T08:51:55.638Z,19.56
2022-10-18T08:52:55.576Z,19.67
2022-10-18T08:53:55.583Z,19.76
2022-10-18T08:54:55.549Z,19.82
2022-10-18T08:55:55.565Z,19.94
2022-10-18T08:56:55.543Z,20.00
2022-10-18T08:57:55.515Z,20.07
2022-10-18T08:58:55.482Z,20.24
2022-10-18T08:59:55.512Z,20.39
2022-10-18T09:00:55.463Z,20.44
2022-10-18T09:01:55.449Z,20.44
2022-10-18T09:02:55.456Z,20.39
2022-10-18T09:03:55.451Z,20.28
2022-10-18T09:04:55.444Z,20.14
2022-10-18T09:05:55.390Z,19.99
2022-10-18T09:06:55.396Z,19.84
2022-10-18T09:07:55.365Z,19.70
2022-10-18T09:08:55.357Z,19.55
2022-10-18T09:09:55.392Z,19.44
2022-10-18T09:10:55.430Z,19.40
2022-10-18T09:11:58.064Z,19.36
2022-10-18T09:12:55.307Z,19.33
2022-10-18T09:13:55.279Z,19.33
2022-10-18T09:14:55.273Z,19.34
2022-10-18T09:15:55.273Z,19.33
2022-10-18T09:16:55.255Z,19.47
2022-10-18T09:17:55.233Z,19.64
2022-10-18T09:18:55.223Z,19.79
2022-10-18T09:19:55.345Z,20.00
2022-10-18T09:20:55.294Z,20.19
2022-10-18T09:21:55.205Z,20.43
2022-10-18T09:22:55.170Z,20.69
2022-10-18T09:23:55.159Z,20.92
2022-10-18T09:24:55.168Z,21.14
2022-10-18T09:25:55.125Z,21.33
2022-10-18T09:26:55.138Z,21.45
2022-10-18T09:27:55.103Z,21.52
2022-10-18T09:28:55.215Z,21.51
2022-10-18T09:29:55.083Z,21.39
2022-10-18T09:30:57.235Z,21.20
2022-10-18T09:31:55.059Z,20.97
2022-10-18T09:32:55.100Z,20.87
2022-10-18T09:33:55.144Z,20.74
2022-10-18T09:34:55.040Z,20.74
2022-10-18T09:35:55.004Z,20.78
2022-10-18T09:36:55.014Z,20.85
2022-10-18T09:37:54.968Z,21.02
2022-10-18T09:38:57.249Z,21.15
2022-10-18T09:39:54.937Z,21.30
2022-10-18T09:40:54.969Z,21.43
2022-10-18T09:41:54.921Z,21.58
2022-10-18T09:42:54.934Z,21.72
2022-10-18T09:43:54.894Z,21.82
2022-10-18T09:44:54.898Z,21.96
2022-10-18T09:45:54.871Z,22.14
2022-10-18T09:46:54.871Z,22.25
2022-10-18T09:47:54.866Z,22.36
2022-10-18T09:48:54.823Z,22.45
2022-10-18T09:49:54.843Z,22.54
2022-10-18T09:50:54.799Z,22.63
2022-10-18T09:51:54.776Z,22.66
2022-10-18T09:52:54.775Z,22.69
2022-10-18T09:53:54.759Z,22.76
2022-10-18T09:54:54.776Z,22.91
2022-10-18T09:55:54.742Z,22.98
2022-10-18T09:57:54.708Z,23.18
2022-10-18T09:58:54.687Z,23.32
2022-10-18T09:59:54.674Z,23.43
2022-10-18T10:00:54.694Z,23.55
2022-10-18T10:01:54.677Z,23.59
2022-10-18T10:02:54.656Z,23.63
2022-10-18T10:03:54.624Z,23.80
2022-10-18T10:04:54.608Z,23.98
2022-10-18T10:05:54.611Z,23.88
2022-10-18T10:06:54.607Z,23.76
2022-10-18T10:07:54.569Z,23.61
2022-10-18T10:08:54.557Z,23.46
2022-10-18T10:09:54.528Z,23.31
2022-10-18T10:10:54.529Z,23.25
2022-10-18T10:11:54.532Z,23.41
2022-10-18T10:12:54.537Z,23.55
2022-10-18T10:13:54.491Z,23.69
2022-10-18T10:14:54.484Z,23.88
2022-10-18T10:15:54.462Z,24.11
2022-10-18T10:16:54.480Z,24.36
2022-10-18T10:17:54.456Z,24.54
2022-10-18T10:18:54.422Z,24.70
2022-10-18T10:19:54.454Z,24.84
2022-10-18T10:20:54.403Z,24.89
2022-10-18T10:21:54.381Z,24.85
2022-10-18T10:22:54.398Z,24.80
2022-10-18T10:23:54.382Z,24.91
2022-10-18T10:24:54.353Z,24.99
2022-10-18T10:25:54.335Z,25.08
2022-10-18T10:26:54.354Z,25.06
2022-10-18T10:27:54.348Z,25.03
2022-10-18T10:28:54.395Z,24.99
2022-10-18T10:29:54.285Z,25.18
2022-10-18T10:30:54.307Z,25.29
2022-10-18T10:31:54.254Z,25.46
2022-10-18T10:32:54.265Z,25.68
2022-10-18T10:33:54.273Z,25.81
2022-10-18T10:34:54.219Z,25.80
2022-10-18T10:35:54.437Z,25.85
2022-10-18T10:36:54.185Z,25.80
2022-10-18T10:37:54.205Z,25.85
2022-10-18T10:38:54.165Z,26.05
2022-10-18T10:40:13.778Z,26.15
2022-10-18T10:40:54.149Z,26.05
2022-10-18T10:41:54.116Z,25.85
2022-10-18T10:43:00.000Z,25.87
2022-10-18T10:43:54.098Z,25.99
2022-10-18T10:44:54.083Z,26.19
2022-10-18T10:45:54.080Z,26.18
2022-10-18T10:46:54.089Z,25.99
2022-10-18T10:47:54.043Z,25.88
2022-10-18T10:49:09.528Z,26.02
2022-10-18T10:49:54.066Z,26.09
2022-10-18T10:50:55.253Z,26.09
2022-10-18T10:52:02.526Z,26.09
2022-10-18T10:52:53.987Z,26.05
2022-10-18T10:53:54.084Z,26.28
2022-10-18T10:55:05.457Z,26.33
2022-10-18T10:55:53.945Z,26.47
2022-10-18T10:56:53.927Z,26.59
2022-10-18T10:57:53.919Z,26.62
2022-10-18T10:58:53.984Z,26.55
2022-10-18T10:59:53.939Z,26.60
2022-10-18T11:00:53.877Z,26.63
2022-10-18T11:01:53.903Z,26.56
2022-10-18T11:03:00.678Z,26.56
2022-10-18T11:03:53.942Z,26.70
2022-10-18T11:04:53.846Z,26.78
2022-10-18T11:05:53.830Z,26.90
2022-10-18T11:06:53.830Z,26.78
2022-10-18T11:07:53.788Z,26.65
2022-10-18T11:08:53.783Z,26.68
2022-10-18T11:09:53.767Z,26.89
2022-10-18T11:10:53.769Z,27.07
2022-10-18T11:11:53.729Z,27.20
2022-10-18T11:12:53.762Z,27.21
2022-10-18T11:14:07.198Z,27.27
2022-10-18T11:14:53.741Z,27.39
2022-10-18T11:15:53.692Z,27.54
2022-10-18T11:16:53.673Z,27.75
2022-10-18T11:18:53.643Z,27.63
2022-10-18T11:19:53.806Z,27.48
2022-10-18T11:20:53.625Z,27.33
2022-10-18T11:21:53.607Z,27.08
2022-10-18T11:22:53.647Z,26.96
2022-10-18T11:23:53.611Z,26.81
2022-10-18T11:24:53.573Z,26.75
2022-10-18T11:25:53.557Z,26.71
2022-10-18T11:26:53.967Z,26.68
2022-10-18T11:27:53.534Z,26.66
2022-10-18T11:28:53.654Z,26.66
2022-10-18T11:29:53.516Z,26.68
2022-10-18T11:30:53.534Z,26.81
2022-10-18T11:31:53.472Z,26.84
2022-10-18T11:32:53.473Z,26.81
2022-10-18T11:34:10.059Z,26.81
2022-10-18T11:34:53.448Z,26.78
2022-10-18T11:35:53.459Z,26.81
2022-10-18T11:36:56.840Z,26.84
2022-10-18T11:37:53.409Z,26.71
2022-10-18T11:38:53.391Z,26.68
2022-10-18T11:39:53.379Z,26.68
2022-10-18T11:40:53.386Z,26.84
2022-10-18T11:41:53.362Z,27.10
2022-10-18T11:42:53.335Z,27.22
2022-10-18T11:44:03.904Z,27.39
2022-10-18T11:44:53.314Z,27.45
2022-10-18T11:45:53.321Z,27.63
2022-10-18T11:46:53.288Z,27.71
2022-10-18T11:47:55.752Z,27.80
2022-10-18T11:48:53.265Z,27.75
2022-10-18T11:49:53.234Z,27.80
2022-10-18T11:50:53.293Z,27.73
2022-10-18T11:52:07.851Z,27.73
2022-10-18T11:52:53.220Z,27.85
2022-10-18T11:53:53.219Z,27.92
2022-10-18T11:54:53.188Z,28.02
2022-10-18T11:55:53.162Z,28.05
2022-10-18T11:56:53.197Z,28.17
2022-10-18T11:57:53.133Z,28.25
2022-10-18T11:58:53.126Z,28.32
2022-10-18T11:59:53.143Z,28.39
2022-10-18T12:00:53.115Z,28.45
2022-10-18T12:01:53.103Z,28.47
2022-10-18T12:02:53.163Z,28.48
2022-10-18T12:03:53.093Z,28.52
2022-10-18T12:05:05.266Z,28.56
2022-10-18T12:05:53.044Z,28.42
2022-10-18T12:06:53.032Z,28.27
2022-10-18T12:07:53.047Z,28.26
2022-10-18T12:08:53.010Z,28.32
2022-10-18T12:09:57.187Z,28.51
2022-10-18T12:11:04.643Z,28.63
2022-10-18T12:11:55.689Z,28.69
2022-10-18T12:12:52.950Z,28.78
2022-10-18T12:13:52.934Z,28.84
2022-10-18T12:14:52.932Z,28.97
2022-10-18T12:15:52.943Z,29.07
2022-10-18T12:17:07.769Z,29.08
2022-10-18T12:17:53.239Z,29.05
2022-10-18T12:19:52.858Z,29.04
2022-10-18T12:20:52.851Z,29.13
2022-10-18T12:21:52.858Z,29.17
2022-10-18T12:22:52.859Z,29.13
2022-10-18T12:23:52.831Z,29.08
2022-10-18T12:24:52.803Z,29.01
2022-10-18T12:25:52.782Z,29.01
2022-10-18T12:26:52.800Z,28.89
2022-10-18T12:27:52.842Z,28.94
2022-10-18T12:28:52.803Z,28.91
2022-10-18T12:29:52.758Z,28.72
2022-10-18T12:30:52.723Z,28.42
2022-10-18T12:31:52.733Z,28.15
2022-10-18T12:33:02.201Z,28.14
2022-10-18T12:33:52.723Z,28.15
2022-10-18T12:34:52.670Z,28.07
2022-10-18T12:35:52.667Z,28.00
2022-10-18T12:36:52.705Z,27.92
2022-10-18T12:37:52.664Z,27.87
2022-10-18T12:38:52.656Z,27.86
2022-10-18T12:40:52.612Z,27.68
2022-10-18T12:41:52.606Z,27.58
2022-10-18T12:42:52.573Z,27.49
2022-10-18T12:43:52.591Z,27.40
2022-10-18T12:44:52.573Z,27.33
2022-10-18T12:45:52.540Z,27.22
2022-10-18T12:46:52.509Z,27.12
2022-10-18T12:47:52.559Z,27.03
2022-10-18T12:48:52.494Z,26.97
2022-10-18T12:49:52.483Z,26.95
2022-10-18T12:50:52.472Z,26.93
2022-10-18T12:51:52.468Z,26.88
2022-10-18T12:52:52.471Z,26.85
2022-10-18T12:53:52.424Z,26.80
2022-10-18T12:54:52.423Z,26.66
2022-10-18T12:55:52.415Z,26.58
2022-10-18T12:56:52.382Z,26.51
2022-10-18T12:57:52.403Z,26.45
2022-10-18T12:58:52.372Z,26.34
2022-10-18T12:59:52.374Z,26.21
2022-10-18T13:00:52.351Z,26.13
2022-10-18T13:01:52.415Z,26.07
2022-10-18T13:02:52.338Z,26.03
2022-10-18T13:03:52.296Z,25.95
2022-10-18T13:04:52.329Z,25.90
2022-10-18T13:05:53.979Z,25.78
2022-10-18T13:06:52.269Z,25.63
2022-10-18T13:07:52.275Z,25.59
2022-10-18T13:08:52.240Z,25.55